Time;durP1;ratioP1;P1;durP2;ratioP2;P2;SDS_P1;SDS_P2;PMS_P1;PMS_P2;Temp;Humidity;BMP_temperature;BMP_pressure;BME280_temperature;BME280_humidity;BME280_pressure;Samples;Min_cycle;Max_cycle;Signal;HPM_P1;HPM_P2
2023/04/10 00:00:24;;;;;;;41.28;27.98;;;;;;;;;;5052481;28;20048;-75
2023/04/10 00:02:50;;;;;;;41.22;28.75;;;;;;;;;;5052323;28;20098;-73
2023/04/10 00:05:16;;;;;;;39.85;28.08;;;;;;;;;;5052414;28;20090;-73
2023/04/10 00:07:42;;;;;;;41.03;29.60;;;;;;;;;;5052393;28;20072;-73
2023/04/10 00:10:08;;;;;;;41.42;29.50;;;;;;;;;;5052348;28;20390;-74
2023/04/10 00:12:36;;;;;;;42.90;29.40;;;;;;;;;;5051330;28;20167;-73
2023/04/10 00:15:03;;;;;;;40.13;28.80;;;;;;;;;;5036555;28;20068;-73
2023/04/10 00:17:29;;;;;;;42.95;30.55;;;;;;;;;;5032412;28;20052;-73
2023/04/10 00:19:55;;;;;;;44.80;30.98;;;;;;;;;;5014441;28;20052;-73
2023/04/10 00:22:21;;;;;;;43.38;30.45;;;;;;;;;;5032108;28;20482;-73
2023/04/10 00:24:47;;;;;;;42.75;30.55;;;;;;;;;;5045972;28;20045;-74
2023/04/10 00:27:13;;;;;;;44.50;31.10;;;;;;;;;;5034564;28;20468;-74
2023/04/10 00:29:39;;;;;;;46.13;32.03;;;;;;;;;;5032485;28;20041;-74
2023/04/10 00:32:05;;;;;;;46.42;32.00;;;;;;;;;;5051568;28;20089;-74
2023/04/10 00:34:31;;;;;;;46.60;32.17;;;;;;;;;;5051930;28;20599;-74
2023/04/10 00:36:58;;;;;;;47.50;34.22;;;;;;;;;;5052403;28;20092;-74
2023/04/10 00:39:24;;;;;;;47.75;32.45;;;;;;;;;;5051267;28;20037;-74
2023/04/10 00:41:50;;;;;;;47.97;33.17;;;;;;;;;;5051462;28;20489;-74
2023/04/10 00:44:16;;;;;;;48.53;33.55;;;;;;;;;;5051865;28;20098;-74
2023/04/10 00:46:42;;;;;;;50.10;35.00;;;;;;;;;;5034133;28;20045;-74
2023/04/10 00:49:09;;;;;;;50.03;34.13;;;;;;;;;;5052208;28;20456;-73
2023/04/10 00:51:36;;;;;;;52.58;34.83;;;;;;;;;;5033920;28;20076;-74
2023/04/10 00:54:03;;;;;;;48.70;33.72;;;;;;;;;;5052208;28;20052;-75
2023/04/10 00:56:32;;;;;;;48.60;34.78;;;;;;;;;;5051369;28;20077;-75
2023/04/10 00:58:58;;;;;;;52.58;35.90;;;;;;;;;;5051451;28;20040;-75
2023/04/10 01:01:24;;;;;;;49.75;35.00;;;;;;;;;;5033486;28;20378;-75
2023/04/10 01:03:50;;;;;;;51.40;35.42;;;;;;;;;;5032540;28;20549;-74
2023/04/10 01:06:22;;;;;;;50.63;35.70;;;;;;;;;;5017213;28;20060;-75
2023/04/10 01:09:11;;;;;;;50.97;35.42;;;;;;;;;;5034001;28;20041;-74
2023/04/10 01:11:52;;;;;;;49.83;35.65;;;;;;;;;;5058145;28;20104;-74
2023/04/10 01:14:32;;;;;;;50.83;36.65;;;;;;;;;;5024907;28;20083;-74
2023/04/10 01:17:01;;;;;;;49.33;35.55;;;;;;;;;;5038877;28;20048;-74
2023/04/10 01:19:45;;;;;;;51.67;36.47;;;;;;;;;;5036613;28;20049;-74
2023/04/10 01:22:13;;;;;;;53.65;37.60;;;;;;;;;;5054921;28;20401;-74
2023/04/10 01:24:39;;;;;;;54.25;38.08;;;;;;;;;;5037149;28;20342;-74
2023/04/10 01:27:15;;;;;;;56.63;38.40;;;;;;;;;;5055120;28;20049;-74
2023/04/10 01:29:51;;;;;;;51.58;37.90;;;;;;;;;;5054964;28;20127;-74
2023/04/10 01:32:20;;;;;;;54.45;38.53;;;;;;;;;;5036369;28;20094;-74
2023/04/10 01:34:49;;;;;;;54.75;39.58;;;;;;;;;;5033631;28;20066;-74
2023/04/10 01:37:27;;;;;;;52.95;38.38;;;;;;;;;;5049884;28;20409;-74
2023/04/10 01:39:57;;;;;;;54.50;38.67;;;;;;;;;;5037257;28;20071;-74
2023/04/10 01:42:23;;;;;;;53.42;38.38;;;;;;;;;;5055032;28;20049;-75
2023/04/10 01:44:49;;;;;;;56.70;40.03;;;;;;;;;;5053815;28;20584;-74
2023/04/10 01:47:17;;;;;;;55.58;39.33;;;;;;;;;;5054806;28;20044;-74
2023/04/10 01:49:44;;;;;;;55.50;38.83;;;;;;;;;;5036800;28;20582;-74
2023/04/10 01:52:11;;;;;;;55.63;39.53;;;;;;;;;;5054860;28;20106;-74
2023/04/10 01:54:38;;;;;;;53.20;39.17;;;;;;;;;;5036508;28;20128;-74
2023/04/10 01:57:05;;;;;;;56.53;40.83;;;;;;;;;;5054911;28;20087;-74
2023/04/10 01:59:31;;;;;;;56.33;41.08;;;;;;;;;;5054036;28;20476;-75
2023/04/10 02:01:58;;;;;;;58.30;41.50;;;;;;;;;;5053945;28;20120;-75
2023/04/10 02:04:25;;;;;;;58.58;40.97;;;;;;;;;;5053930;28;20037;-75
2023/04/10 02:06:57;;;;;;;58.50;41.58;;;;;;;;;;5054659;28;20398;-75
2023/04/10 02:09:28;;;;;;;57.75;40.70;;;;;;;;;;5053841;28;20131;-75
2023/04/10 02:11:57;;;;;;;56.40;41.95;;;;;;;;;;5053728;28;20036;-75
2023/04/10 02:14:28;;;;;;;54.90;40.42;;;;;;;;;;5035918;28;20484;-75
2023/04/10 02:16:54;;;;;;;58.30;41.33;;;;;;;;;;5036295;28;20057;-75
2023/04/10 02:19:22;;;;;;;59.10;42.72;;;;;;;;;;5054214;28;20063;-74
2023/04/10 02:21:48;;;;;;;60.08;42.83;;;;;;;;;;5036189;28;20127;-74
2023/04/10 02:24:14;;;;;;;57.40;40.90;;;;;;;;;;5053872;28;20453;-74
2023/04/10 02:26:47;;;;;;;58.72;42.92;;;;;;;;;;5035101;28;20053;-75
2023/04/10 02:29:13;;;;;;;57.55;40.90;;;;;;;;;;5035176;28;20401;-74
2023/04/10 02:31:40;;;;;;;56.53;42.75;;;;;;;;;;5051959;28;20057;-74
2023/04/10 02:34:06;;;;;;;58.70;41.90;;;;;;;;;;5037716;28;20049;-74
2023/04/10 02:36:32;;;;;;;62.90;41.75;;;;;;;;;;5034698;28;20071;-74
2023/04/10 02:38:59;;;;;;;57.15;40.42;;;;;;;;;;5034135;28;20041;-74
2023/04/10 02:41:25;;;;;;;55.88;41.47;;;;;;;;;;5032633;28;20045;-74
2023/04/10 02:43:51;;;;;;;59.45;41.95;;;;;;;;;;5049732;28;20056;-74
2023/04/10 02:46:17;;;;;;;59.53;41.00;;;;;;;;;;5021971;28;20045;-74
2023/04/10 02:48:43;;;;;;;57.22;41.08;;;;;;;;;;5052631;28;20119;-74
2023/04/10 02:51:09;;;;;;;58.40;41.33;;;;;;;;;;5048213;28;20125;-74
2023/04/10 02:53:35;;;;;;;57.05;41.55;;;;;;;;;;5020109;28;20052;-74
2023/04/10 02:56:01;;;;;;;59.08;41.30;;;;;;;;;;5017711;28;20045;-74
2023/04/10 02:58:29;;;;;;;59.75;40.63;;;;;;;;;;5018290;28;20092;-74
2023/04/10 03:00:56;;;;;;;58.97;40.80;;;;;;;;;;4999461;28;20406;-74
2023/04/10 03:03:22;;;;;;;57.85;41.92;;;;;;;;;;5042689;28;20124;-75
2023/04/10 03:05:48;;;;;;;57.55;41.58;;;;;;;;;;5053607;28;20080;-74
2023/04/10 03:08:18;;;;;;;55.47;40.47;;;;;;;;;;5052756;28;20179;-74
2023/04/10 03:10:45;;;;;;;54.47;39.25;;;;;;;;;;5034987;28;20396;-75
2023/04/10 03:13:11;;;;;;;59.95;41.60;;;;;;;;;;5034545;28;20056;-74
2023/04/10 03:15:37;;;;;;;52.63;38.42;;;;;;;;;;5018062;28;20034;-74
2023/04/10 03:18:04;;;;;;;57.70;40.53;;;;;;;;;;5010710;28;20144;-74
2023/04/10 03:20:31;;;;;;;58.67;40.58;;;;;;;;;;5027753;28;20053;-74
2023/04/10 03:22:58;;;;;;;53.03;39.08;;;;;;;;;;5044669;28;20052;-75
2023/04/10 03:25:24;;;;;;;54.88;40.17;;;;;;;;;;5035008;28;20519;-74
2023/04/10 03:27:50;;;;;;;57.08;41.03;;;;;;;;;;5051282;28;20037;-74
2023/04/10 03:30:16;;;;;;;56.55;41.00;;;;;;;;;;5051014;28;20136;-75
2023/04/10 03:32:42;;;;;;;53.40;39.65;;;;;;;;;;5052459;28;20045;-75
2023/04/10 03:35:11;;;;;;;59.65;42.00;;;;;;;;;;5034291;28;20163;-75
2023/04/10 03:37:37;;;;;;;54.30;39.28;;;;;;;;;;5044294;28;20128;-74
2023/04/10 03:40:07;;;;;;;57.63;40.63;;;;;;;;;;5014812;28;20052;-75
2023/04/10 03:42:33;;;;;;;58.20;40.35;;;;;;;;;;5025886;28;20087;-74
2023/04/10 03:45:01;;;;;;;57.90;41.63;;;;;;;;;;5052575;28;20403;-75
2023/04/10 03:47:27;;;;;;;59.30;40.63;;;;;;;;;;5035305;28;20052;-75
2023/04/10 03:49:53;;;;;;;57.25;39.88;;;;;;;;;;5041217;28;20183;-74
2023/04/10 03:52:19;;;;;;;57.97;40.25;;;;;;;;;;5057301;28;20107;-74
2023/04/10 03:54:45;;;;;;;60.53;39.97;;;;;;;;;;5038072;28;20049;-74
2023/04/10 03:57:11;;;;;;;58.33;42.03;;;;;;;;;;5032902;28;20422;-75
2023/04/10 03:59:37;;;;;;;56.67;41.28;;;;;;;;;;5014769;28;20045;-75
2023/04/10 04:02:03;;;;;;;63.10;43.45;;;;;;;;;;5017484;28;20041;-74
2023/04/10 04:04:30;;;;;;;59.20;43.03;;;;;;;;;;5029562;28;20045;-75
2023/04/10 04:06:56;;;;;;;60.70;42.35;;;;;;;;;;5031636;28;20037;-75
2023/04/10 04:09:22;;;;;;;60.10;42.15;;;;;;;;;;5032345;28;20194;-74
2023/04/10 04:11:48;;;;;;;61.88;41.65;;;;;;;;;;5016330;28;20060;-74
2023/04/10 04:14:14;;;;;;;58.90;40.90;;;;;;;;;;5029972;28;20040;-75
2023/04/10 04:16:40;;;;;;;59.40;43.10;;;;;;;;;;5032189;28;20505;-75
2023/04/10 04:19:06;;;;;;;61.38;42.63;;;;;;;;;;5032224;28;20046;-75
2023/04/10 04:21:32;;;;;;;61.88;43.53;;;;;;;;;;5033049;28;20132;-75
2023/04/10 04:23:58;;;;;;;61.65;43.30;;;;;;;;;;5037624;28;20049;-74
2023/04/10 04:26:25;;;;;;;62.78;41.88;;;;;;;;;;5015320;28;20444;-75
2023/04/10 04:28:51;;;;;;;64.10;41.92;;;;;;;;;;5031686;28;20418;-75
2023/04/10 04:31:17;;;;;;;66.07;44.45;;;;;;;;;;5035953;28;20512;-75
2023/04/10 04:33:43;;;;;;;60.85;43.40;;;;;;;;;;5034129;28;20049;-74
2023/04/10 04:36:09;;;;;;;62.17;43.08;;;;;;;;;;5051850;28;20037;-75
2023/04/10 04:38:35;;;;;;;62.08;42.28;;;;;;;;;;5050828;28;20094;-75
2023/04/10 04:41:01;;;;;;;60.65;43.33;;;;;;;;;;5050424;28;20049;-75
2023/04/10 04:43:27;;;;;;;59.95;41.92;;;;;;;;;;5051434;28;20048;-75
2023/04/10 04:45:53;;;;;;;61.00;41.97;;;;;;;;;;5050598;28;20055;-75
2023/04/10 04:48:19;;;;;;;57.97;40.85;;;;;;;;;;5050061;28;20128;-74
2023/04/10 04:50:45;;;;;;;62.75;41.85;;;;;;;;;;5051642;28;20048;-75
2023/04/10 04:53:11;;;;;;;57.65;41.90;;;;;;;;;;5052796;28;20076;-75
2023/04/10 04:55:37;;;;;;;59.53;41.70;;;;;;;;;;5054647;28;20420;-75
2023/04/10 04:58:03;;;;;;;58.50;42.28;;;;;;;;;;5055599;28;20037;-75
2023/04/10 05:00:29;;;;;;;58.83;41.67;;;;;;;;;;5054776;28;20420;-75
2023/04/10 05:02:55;;;;;;;59.72;41.88;;;;;;;;;;5054163;28;20140;-75
2023/04/10 05:05:21;;;;;;;60.95;41.83;;;;;;;;;;5054315;28;20235;-74
2023/04/10 05:07:47;;;;;;;57.50;41.15;;;;;;;;;;5053970;28;20500;-74
2023/04/10 05:10:14;;;;;;;61.67;42.67;;;;;;;;;;5055025;28;20405;-75
2023/04/10 05:12:41;;;;;;;62.67;42.10;;;;;;;;;;5054135;28;20432;-75
2023/04/10 05:15:08;;;;;;;56.63;40.67;;;;;;;;;;5054887;28;20520;-75
2023/04/10 05:17:34;;;;;;;58.38;40.63;;;;;;;;;;5053896;28;20036;-75
2023/04/10 05:20:00;;;;;;;56.33;40.05;;;;;;;;;;5053856;28;20499;-75
2023/04/10 05:22:27;;;;;;;56.15;38.67;;;;;;;;;;5053439;28;20045;-74
2023/04/10 05:24:54;;;;;;;58.40;38.70;;;;;;;;;;5053744;28;20080;-74
2023/04/10 05:27:20;;;;;;;57.22;38.75;;;;;;;;;;5055315;28;20093;-74
2023/04/10 05:29:47;;;;;;;55.80;38.10;;;;;;;;;;5054334;28;20503;-75
2023/04/10 05:32:13;;;;;;;57.22;39.25;;;;;;;;;;5054829;28;20052;-75
2023/04/10 05:34:39;;;;;;;56.05;39.08;;;;;;;;;;5054705;28;20478;-75
2023/04/10 05:37:05;;;;;;;57.55;38.90;;;;;;;;;;5020724;28;20124;-74
2023/04/10 05:39:31;;;;;;;59.83;37.80;;;;;;;;;;5020073;28;20037;-75
2023/04/10 05:41:57;;;;;;;56.70;37.38;;;;;;;;;;5020751;28;20102;-75
2023/04/10 05:44:24;;;;;;;56.20;37.78;;;;;;;;;;5054575;28;20051;-75
2023/04/10 05:46:50;;;;;;;59.05;38.70;;;;;;;;;;5055120;28;20052;-74
2023/04/10 05:49:16;;;;;;;56.35;39.33;;;;;;;;;;5054665;28;20065;-75
2023/04/10 05:51:42;;;;;;;58.50;37.72;;;;;;;;;;5037021;28;20131;-75
2023/04/10 05:54:08;;;;;;;55.35;39.38;;;;;;;;;;5054776;28;20124;-75
2023/04/10 05:56:34;;;;;;;52.65;38.20;;;;;;;;;;5054569;28;20500;-74
2023/04/10 05:59:00;;;;;;;55.30;38.47;;;;;;;;;;5054602;28;20095;-75
2023/04/10 06:01:26;;;;;;;57.88;38.55;;;;;;;;;;5054683;28;20040;-74
2023/04/10 06:03:52;;;;;;;55.13;38.15;;;;;;;;;;5053677;28;20517;-75
2023/04/10 06:06:20;;;;;;;52.72;37.33;;;;;;;;;;5054830;28;20045;-75
2023/04/10 06:08:46;;;;;;;52.28;36.97;;;;;;;;;;5052218;28;20045;-77
2023/04/10 06:11:12;;;;;;;52.95;36.03;;;;;;;;;;5035654;28;20067;-75
2023/04/10 06:13:38;;;;;;;50.85;35.80;;;;;;;;;;5030812;28;20465;-75
2023/04/10 06:16:05;;;;;;;50.60;35.38;;;;;;;;;;5036315;28;20040;-74
2023/04/10 06:18:31;;;;;;;51.45;34.97;;;;;;;;;;5054004;28;20044;-74
2023/04/10 06:20:59;;;;;;;47.20;33.90;;;;;;;;;;5047648;28;20037;-74
2023/04/10 06:23:25;;;;;;;50.58;34.35;;;;;;;;;;5030994;28;20104;-74
2023/04/10 06:25:51;;;;;;;50.47;34.05;;;;;;;;;;5059696;28;20075;-74
2023/04/10 06:28:17;;;;;;;50.58;35.08;;;;;;;;;;5055999;28;20115;-75
2023/04/10 06:30:43;;;;;;;46.53;33.15;;;;;;;;;;5054275;28;20079;-74
2023/04/10 06:33:09;;;;;;;46.53;32.47;;;;;;;;;;5034724;28;20052;-74
2023/04/10 06:35:36;;;;;;;45.58;32.60;;;;;;;;;;5054115;28;20567;-74
2023/04/10 06:38:02;;;;;;;44.28;31.13;;;;;;;;;;5054059;28;20397;-74
2023/04/10 06:40:29;;;;;;;48.78;31.63;;;;;;;;;;5053950;28;20056;-74
2023/04/10 06:42:55;;;;;;;45.28;32.55;;;;;;;;;;5052365;28;20037;-75
2023/04/10 06:45:22;;;;;;;46.42;31.20;;;;;;;;;;5052880;28;20041;-74
2023/04/10 06:47:48;;;;;;;45.75;30.85;;;;;;;;;;5053894;28;20063;-74
2023/04/10 06:50:14;;;;;;;46.22;31.75;;;;;;;;;;5053477;28;20041;-73
2023/04/10 06:52:40;;;;;;;45.90;31.92;;;;;;;;;;5054025;28;20099;-74
2023/04/10 06:55:06;;;;;;;44.15;30.63;;;;;;;;;;5035562;28;20469;-74
2023/04/10 06:57:32;;;;;;;42.83;31.20;;;;;;;;;;5050695;28;20045;-74
2023/04/10 06:59:58;;;;;;;44.15;30.80;;;;;;;;;;5052929;28;20049;-75
2023/04/10 07:02:24;;;;;;;43.72;30.63;;;;;;;;;;5017721;28;20068;-74
2023/04/10 07:04:51;;;;;;;46.22;31.60;;;;;;;;;;5052983;28;20103;-74
2023/04/10 07:07:18;;;;;;;46.53;31.90;;;;;;;;;;5035780;28;20056;-75
2023/04/10 07:09:44;;;;;;;43.78;30.80;;;;;;;;;;5034910;28;20501;-74
2023/04/10 07:12:10;;;;;;;44.10;30.92;;;;;;;;;;5035235;28;20040;-75
2023/04/10 07:14:36;;;;;;;42.17;29.92;;;;;;;;;;5049921;28;20045;-75
2023/04/10 07:17:02;;;;;;;42.15;30.15;;;;;;;;;;5053504;28;20049;-74
2023/04/10 07:19:28;;;;;;;45.63;29.45;;;;;;;;;;5053028;28;20048;-74
2023/04/10 07:21:54;;;;;;;44.35;30.48;;;;;;;;;;5053099;28;20048;-75
2023/04/10 07:24:21;;;;;;;43.63;29.83;;;;;;;;;;5035093;28;20049;-75
2023/04/10 07:26:47;;;;;;;47.10;30.08;;;;;;;;;;5035540;28;20041;-74
2023/04/10 07:29:13;;;;;;;45.15;30.25;;;;;;;;;;5018272;28;20045;-74
2023/04/10 07:31:39;;;;;;;41.33;28.42;;;;;;;;;;5034871;28;20445;-74
2023/04/10 07:34:05;;;;;;;46.38;30.52;;;;;;;;;;5050885;28;20056;-74
2023/04/10 07:36:32;;;;;;;42.50;31.25;;;;;;;;;;5051061;28;20460;-74
2023/04/10 07:38:58;;;;;;;44.08;30.95;;;;;;;;;;5052991;28;20037;-74
2023/04/10 07:41:24;;;;;;;43.95;30.27;;;;;;;;;;5030020;28;20076;-74
2023/04/10 07:43:50;;;;;;;43.83;30.75;;;;;;;;;;5050948;28;20088;-75
2023/04/10 07:46:16;;;;;;;46.35;30.63;;;;;;;;;;5052079;28;20037;-75
2023/04/10 07:48:43;;;;;;;45.70;30.13;;;;;;;;;;5034840;28;20044;-75
2023/04/10 07:51:09;;;;;;;40.78;29.48;;;;;;;;;;5018227;28;20122;-74
2023/04/10 07:53:36;;;;;;;45.58;30.70;;;;;;;;;;5034567;28;20084;-74
2023/04/10 07:56:02;;;;;;;42.22;28.85;;;;;;;;;;5052730;28;20401;-75
2023/04/10 07:58:28;;;;;;;42.95;28.80;;;;;;;;;;5050982;28;20044;-75
2023/04/10 08:00:54;;;;;;;40.42;28.52;;;;;;;;;;5051642;28;20041;-74
2023/04/10 08:03:21;;;;;;;39.90;27.20;;;;;;;;;;5052317;28;20045;-75
2023/04/10 08:05:47;;;;;;;40.92;27.15;;;;;;;;;;5052257;28;20121;-75
2023/04/10 08:08:14;;;;;;;36.47;26.30;;;;;;;;;;5016804;28;20037;-74
2023/04/10 08:10:40;;;;;;;37.83;26.40;;;;;;;;;;5023808;28;20143;-74
2023/04/10 08:13:06;;;;;;;40.22;25.92;;;;;;;;;;5052151;28;20041;-74
2023/04/10 08:15:32;;;;;;;37.75;25.52;;;;;;;;;;5034890;28;20037;-74
2023/04/10 08:17:58;;;;;;;32.70;23.95;;;;;;;;;;5034326;28;20076;-75
2023/04/10 08:20:24;;;;;;;33.72;25.08;;;;;;;;;;5033932;28;20575;-75
2023/04/10 08:22:50;;;;;;;31.20;23.98;;;;;;;;;;5017963;28;20052;-74
2023/04/10 08:25:16;;;;;;;31.52;23.10;;;;;;;;;;5034502;28;20532;-73
2023/04/10 08:27:42;;;;;;;30.92;22.92;;;;;;;;;;5033808;28;20048;-73
2023/04/10 08:30:08;;;;;;;35.50;24.35;;;;;;;;;;5051524;28;20421;-73
2023/04/10 08:32:37;;;;;;;32.05;23.65;;;;;;;;;;5052180;28;20044;-74
2023/04/10 08:35:04;;;;;;;32.67;23.58;;;;;;;;;;5033795;28;20045;-74
2023/04/10 08:37:30;;;;;;;35.65;24.42;;;;;;;;;;5052048;28;20033;-74
2023/04/10 08:39:56;;;;;;;34.50;23.15;;;;;;;;;;5051750;28;20411;-74
2023/04/10 08:42:22;;;;;;;41.63;25.60;;;;;;;;;;5048491;28;20065;-74
2023/04/10 08:44:49;;;;;;;36.53;24.70;;;;;;;;;;5029611;28;20052;-75
2023/04/10 08:47:16;;;;;;;36.05;24.50;;;;;;;;;;5032769;28;20049;-75
2023/04/10 08:49:43;;;;;;;34.13;24.33;;;;;;;;;;5048042;28;20094;-74
2023/04/10 08:52:13;;;;;;;34.67;25.48;;;;;;;;;;5046319;28;20106;-75
2023/04/10 08:54:41;;;;;;;35.63;23.50;;;;;;;;;;5051299;28;20071;-75
2023/04/10 08:57:07;;;;;;;32.85;23.30;;;;;;;;;;5052319;28;20041;-75
2023/04/10 08:59:33;;;;;;;33.83;23.70;;;;;;;;;;5027901;28;20121;-75
2023/04/10 09:01:59;;;;;;;31.63;22.55;;;;;;;;;;5052484;28;20056;-75
2023/04/10 09:04:26;;;;;;;32.30;22.20;;;;;;;;;;5033902;28;20049;-75
2023/04/10 09:06:52;;;;;;;31.92;22.30;;;;;;;;;;5033533;28;20048;-76
2023/04/10 09:09:18;;;;;;;30.67;21.08;;;;;;;;;;5049825;28;20055;-76
2023/04/10 09:11:52;;;;;;;39.65;20.63;;;;;;;;;;5033911;28;20065;-76
2023/04/10 09:14:22;;;;;;;27.08;19.73;;;;;;;;;;5050233;28;20071;-76
2023/04/10 09:16:48;;;;;;;25.45;18.60;;;;;;;;;;5059342;28;20029;-76
2023/04/10 09:19:28;;;;;;;25.70;19.05;;;;;;;;;;5033259;28;20113;-76
2023/04/10 09:21:55;;;;;;;25.20;18.65;;;;;;;;;;5051884;28;20091;-75
2023/04/10 09:24:22;;;;;;;27.25;18.33;;;;;;;;;;5051291;28;20071;-75
2023/04/10 09:26:48;;;;;;;25.90;19.00;;;;;;;;;;5051658;28;20052;-76
2023/04/10 09:29:15;;;;;;;24.80;18.20;;;;;;;;;;5050503;28;20053;-75
2023/04/10 09:31:42;;;;;;;23.85;17.65;;;;;;;;;;5045617;28;20119;-75
2023/04/10 09:34:20;;;;;;;22.80;17.85;;;;;;;;;;5051673;28;20077;-75
2023/04/10 09:36:56;;;;;;;23.90;17.40;;;;;;;;;;5050084;28;20041;-76
2023/04/10 09:39:32;;;;;;;23.23;17.25;;;;;;;;;;5052648;28;20493;-75
2023/04/10 09:41:58;;;;;;;;;;;;;;;;;;5055412;28;20076;-75
2023/04/10 09:44:31;;;;;;;21.63;16.15;;;;;;;;;;5054473;28;19974;-76
2023/04/10 09:47:17;;;;;;;20.70;15.48;;;;;;;;;;5051523;28;20133;-76
2023/04/10 09:49:53;;;;;;;19.33;15.35;;;;;;;;;;5054456;28;20041;-76
2023/04/10 09:52:21;;;;;;;18.95;14.60;;;;;;;;;;5053083;28;20397;-77
2023/04/10 09:54:47;;;;;;;20.73;14.90;;;;;;;;;;5054096;28;20056;-77
2023/04/10 09:57:18;;;;;;;19.65;15.25;;;;;;;;;;5054907;28;20037;-77
2023/04/10 09:59:51;;;;;;;20.38;14.27;;;;;;;;;;5052922;28;20494;-77
2023/04/10 10:02:18;;;;;;;19.02;14.52;;;;;;;;;;5054632;28;20131;-76
2023/04/10 10:04:45;;;;;;;20.65;13.85;;;;;;;;;;5054412;28;20049;-76
2023/04/10 10:07:11;;;;;;;17.02;13.43;;;;;;;;;;5053519;28;20124;-78
2023/04/10 10:09:37;;;;;;;18.70;13.20;;;;;;;;;;5053809;28;20435;-77
2023/04/10 10:12:03;;;;;;;18.08;12.73;;;;;;;;;;5054617;28;20044;-78
2023/04/10 10:14:31;;;;;;;18.02;12.93;;;;;;;;;;5042149;28;20176;-75
2023/04/10 10:17:01;;;;;;;18.50;12.50;;;;;;;;;;5034463;28;20048;-76
2023/04/10 10:19:33;;;;;;;15.02;12.00;;;;;;;;;;5041855;28;20049;-75
2023/04/10 10:22:02;;;;;;;15.52;11.68;;;;;;;;;;5053090;28;20041;-76
2023/04/10 10:24:31;;;;;;;16.23;12.35;;;;;;;;;;5052418;28;20052;-77
2023/04/10 10:26:58;;;;;;;16.80;12.50;;;;;;;;;;5054245;28;20041;-77
2023/04/10 10:29:24;;;;;;;15.13;12.60;;;;;;;;;;5053859;28;20128;-77
2023/04/10 10:31:51;;;;;;;15.25;11.88;;;;;;;;;;5054510;28;20057;-76
2023/04/10 10:34:17;;;;;;;19.20;12.90;;;;;;;;;;5035885;28;20061;-77
2023/04/10 10:36:43;;;;;;;16.10;12.15;;;;;;;;;;5054370;28;20045;-77
2023/04/10 10:39:25;;;;;;;16.40;11.98;;;;;;;;;;5019485;28;20052;-77
2023/04/10 10:41:56;;;;;;;16.45;12.55;;;;;;;;;;5053749;28;20044;-77
2023/04/10 10:44:28;;;;;;;13.75;10.65;;;;;;;;;;5054113;28;20052;-77
2023/04/10 10:47:07;;;;;;;17.63;10.23;;;;;;;;;;5036095;28;20631;-76
2023/04/10 10:49:53;;;;;;;14.13;9.70;;;;;;;;;;5035113;28;20181;-75
2023/04/10 10:52:45;;;;;;;13.93;9.57;;;;;;;;;;5053826;28;20041;-76
2023/04/10 10:55:27;;;;;;;15.05;9.88;;;;;;;;;;5032107;28;20044;-75
2023/04/10 10:57:54;;;;;;;16.10;10.48;;;;;;;;;;5034293;28;20048;-75
2023/04/10 11:00:21;;;;;;;13.45;9.23;;;;;;;;;;5034165;28;20402;-76
2023/04/10 11:03:16;;;;;;;12.43;9.50;;;;;;;;;;5053279;28;20106;-76
2023/04/10 11:05:55;;;;;;;12.95;9.77;;;;;;;;;;5053461;28;20123;-76
2023/04/10 11:08:42;;;;;;;12.52;10.05;;;;;;;;;;5053209;28;20110;-76
2023/04/10 11:11:14;;;;;;;12.27;9.45;;;;;;;;;;5035041;28;20048;-77
2023/04/10 11:13:41;;;;;;;12.02;9.18;;;;;;;;;;5030964;28;20041;-76
2023/04/10 11:16:10;;;;;;;11.13;8.73;;;;;;;;;;5033412;28;20144;-76
2023/04/10 11:18:46;;;;;;;10.82;8.38;;;;;;;;;;5031614;28;20037;-76
2023/04/10 11:21:12;;;;;;;10.50;8.35;;;;;;;;;;5032933;28;20077;-76
2023/04/10 11:23:59;;;;;;;10.88;7.88;;;;;;;;;;5033388;28;20133;-77
2023/04/10 11:26:38;;;;;;;10.98;7.22;;;;;;;;;;5015202;28;20140;-76
2023/04/10 11:29:13;;;;;;;11.30;7.53;;;;;;;;;;5015085;28;20060;-76
2023/04/10 11:31:40;;;;;;;16.08;7.90;;;;;;;;;;5032629;28;20119;-77
2023/04/10 11:34:07;;;;;;;31.08;7.38;;;;;;;;;;5032767;28;20057;-76
2023/04/10 11:36:43;;;;;;;11.93;7.35;;;;;;;;;;5014857;28;20045;-77
2023/04/10 11:39:14;;;;;;;9.07;6.95;;;;;;;;;;5015057;28;20128;-76
2023/04/10 11:41:45;;;;;;;9.98;7.13;;;;;;;;;;5014222;28;20171;-77
2023/04/10 11:44:15;;;;;;;8.73;6.40;;;;;;;;;;5032500;28;20320;-77
2023/04/10 11:46:41;;;;;;;9.73;6.63;;;;;;;;;;4998740;28;20057;-77
2023/04/10 11:49:09;;;;;;;8.40;6.47;;;;;;;;;;5032682;28;20049;-77
2023/04/10 11:51:35;;;;;;;9.02;6.28;;;;;;;;;;5014535;28;20038;-77
2023/04/10 11:54:11;;;;;;;8.05;6.10;;;;;;;;;;5014520;28;20435;-77
2023/04/10 11:56:38;;;;;;;8.43;6.28;;;;;;;;;;5032732;28;20045;-76
2023/04/10 11:59:16;;;;;;;7.85;6.10;;;;;;;;;;5014848;28;20462;-76
2023/04/10 12:01:42;;;;;;;9.43;5.85;;;;;;;;;;5014404;28;20045;-76
2023/04/10 12:04:18;;;;;;;8.40;6.00;;;;;;;;;;5014927;28;20041;-77
2023/04/10 12:06:48;;;;;;;9.45;5.72;;;;;;;;;;5033038;28;20041;-77
2023/04/10 12:09:16;;;;;;;9.20;6.38;;;;;;;;;;5035938;28;20045;-77
2023/04/10 12:12:08;;;;;;;7.78;5.88;;;;;;;;;;5021596;28;20034;-74
2023/04/10 12:14:34;;;;;;;8.20;5.93;;;;;;;;;;5029457;28;20064;-76
2023/04/10 12:17:03;;;;;;;8.90;5.63;;;;;;;;;;5032496;28;20092;-77
2023/04/10 12:19:30;;;;;;;9.48;5.72;;;;;;;;;;5032320;28;20623;-77
2023/04/10 12:21:57;;;;;;;8.80;4.95;;;;;;;;;;5032262;28;20041;-77
2023/04/10 12:24:53;;;;;;;8.60;4.70;;;;;;;;;;5032411;28;20458;-76
2023/04/10 12:27:19;;;;;;;6.43;4.43;;;;;;;;;;5002486;28;20485;-76
2023/04/10 12:29:46;;;;;;;7.68;4.70;;;;;;;;;;5030928;28;20137;-76
2023/04/10 12:32:12;;;;;;;7.35;4.95;;;;;;;;;;5014291;28;20425;-76
2023/04/10 12:34:38;;;;;;;6.13;4.47;;;;;;;;;;5014386;28;20053;-76
2023/04/10 12:37:05;;;;;;;8.18;4.43;;;;;;;;;;5032642;28;20107;-77
2023/04/10 12:39:31;;;;;;;6.22;4.47;;;;;;;;;;5014279;28;20049;-77
2023/04/10 12:42:12;;;;;;;6.25;4.18;;;;;;;;;;5032063;28;20052;-78
2023/04/10 12:44:57;;;;;;;7.18;5.05;;;;;;;;;;5013871;28;20053;-77
2023/04/10 12:47:24;;;;;;;8.02;4.65;;;;;;;;;;5032336;28;20553;-77
2023/04/10 12:50:10;;;;;;;6.85;4.57;;;;;;;;;;5014307;28;20395;-77
2023/04/10 12:52:36;;;;;;;9.32;4.18;;;;;;;;;;5014400;28;20047;-77
2023/04/10 12:55:13;;;;;;;7.22;4.32;;;;;;;;;;5032070;28;20052;-76
2023/04/10 12:57:46;;;;;;;6.03;4.43;;;;;;;;;;5032211;28;20046;-77
2023/04/10 13:00:14;;;;;;;7.28;4.50;;;;;;;;;;5014470;28;20383;-76
2023/04/10 13:02:40;;;;;;;6.97;4.85;;;;;;;;;;5014115;28;20045;-78
2023/04/10 13:05:07;;;;;;;8.75;4.43;;;;;;;;;;5032126;28;20057;-76
2023/04/10 13:07:33;;;;;;;7.13;4.50;;;;;;;;;;4998236;28;20060;-77
2023/04/10 13:09:59;;;;;;;7.03;4.53;;;;;;;;;;5006408;28;20405;-77
2023/04/10 13:12:26;;;;;;;9.75;5.20;;;;;;;;;;5031656;28;20096;-76
2023/04/10 13:14:52;;;;;;;9.23;4.90;;;;;;;;;;5035003;28;20042;-76
2023/04/10 13:17:19;;;;;;;6.95;5.30;;;;;;;;;;5035932;28;20448;-77
2023/04/10 13:19:45;;;;;;;7.10;5.00;;;;;;;;;;5045411;28;20064;-77
2023/04/10 13:22:11;;;;;;;7.00;4.70;;;;;;;;;;5055530;28;20041;-76
2023/04/10 13:24:37;;;;;;;7.90;4.57;;;;;;;;;;5037386;28;20076;-77
2023/04/10 13:27:04;;;;;;;8.88;4.95;;;;;;;;;;5055418;28;20045;-77
2023/04/10 13:29:30;;;;;;;10.23;5.00;;;;;;;;;;5054254;28;20077;-77
2023/04/10 13:31:56;;;;;;;7.70;4.95;;;;;;;;;;5054986;28;20063;-77
2023/04/10 13:34:22;;;;;;;7.38;4.95;;;;;;;;;;5054926;28;20132;-76
2023/04/10 13:36:48;;;;;;;7.53;5.20;;;;;;;;;;5035554;28;20057;-76
2023/04/10 13:39:14;;;;;;;7.18;5.03;;;;;;;;;;5054894;28;20154;-76
2023/04/10 13:41:40;;;;;;;6.22;5.13;;;;;;;;;;5037260;28;20041;-76
2023/04/10 13:44:06;;;;;;;6.82;5.38;;;;;;;;;;5037063;28;20048;-76
2023/04/10 13:46:32;;;;;;;7.47;5.18;;;;;;;;;;5055126;28;20486;-77
2023/04/10 13:48:59;;;;;;;8.02;5.65;;;;;;;;;;5025398;28;20482;-76
2023/04/10 13:51:25;;;;;;;8.48;5.40;;;;;;;;;;5050496;28;20041;-77
2023/04/10 13:53:51;;;;;;;7.82;5.65;;;;;;;;;;5018766;28;20056;-76
2023/04/10 13:56:17;;;;;;;8.00;5.25;;;;;;;;;;5054422;28;20049;-76
2023/04/10 13:58:45;;;;;;;11.02;5.18;;;;;;;;;;5054756;28;20454;-77
2023/04/10 14:01:11;;;;;;;8.10;5.43;;;;;;;;;;5019755;28;20048;-77
2023/04/10 14:03:37;;;;;;;12.05;5.50;;;;;;;;;;5052885;28;20041;-76
2023/04/10 14:06:03;;;;;;;6.53;5.18;;;;;;;;;;5053324;28;20041;-77
2023/04/10 14:08:29;;;;;;;6.80;5.20;;;;;;;;;;5054608;28;20045;-77
2023/04/10 14:10:55;;;;;;;7.63;5.65;;;;;;;;;;5053825;28;20041;-77
2023/04/10 14:13:21;;;;;;;11.85;5.50;;;;;;;;;;5052369;28;20543;-75
2023/04/10 14:15:48;;;;;;;8.38;5.20;;;;;;;;;;5034078;28;20081;-76
2023/04/10 14:18:17;;;;;;;6.32;4.80;;;;;;;;;;5032278;28;20103;-78
2023/04/10 14:20:43;;;;;;;6.22;4.97;;;;;;;;;;5033518;28;20449;-76
2023/04/10 14:23:15;;;;;;;6.63;5.00;;;;;;;;;;5053525;28;20095;-76
2023/04/10 14:25:41;;;;;;;8.15;5.57;;;;;;;;;;5035349;28;20533;-75
2023/04/10 14:28:08;;;;;;;7.72;5.30;;;;;;;;;;5036558;28;20820;-75